sensor_id;sensor_type;location;lat;lon;timestamp;P1;durP1;ratioP1;P2;durP2;ratioP2
23378;SDS011;11862;46.070;13.222;2022-11-15T00:00:25;5.22;;;4.30;;
23378;SDS011;11862;46.070;13.222;2022-11-15T00:02:54;4.45;;;4.03;;
23378;SDS011;11862;46.070;13.222;2022-11-15T00:05:20;4.93;;;4.00;;
23378;SDS011;11862;46.070;13.222;2022-11-15T00:07:46;4.57;;;4.18;;
23378;SDS011;11862;46.070;13.222;2022-11-15T00:10:12;4.88;;;4.40;;
23378;SDS011;11862;46.070;13.222;2022-11-15T00:12:38;5.88;;;4.25;;
23378;SDS011;11862;46.070;13.222;2022-11-15T00:15:04;4.40;;;3.97;;
23378;SDS011;11862;46.070;13.222;2022-11-15T00:17:30;4.65;;;3.92;;
23378;SDS011;11862;46.070;13.222;2022-11-15T00:19:56;4.28;;;3.30;;
23378;SDS011;11862;46.070;13.222;2022-11-15T00:22:22;4.70;;;3.33;;
23378;SDS011;11862;46.070;13.222;2022-11-15T00:24:48;5.43;;;3.40;;
23378;SDS011;11862;46.070;13.222;2022-11-15T00:27:14;4.57;;;4.18;;
23378;SDS011;11862;46.070;13.222;2022-11-15T00:29:40;3.95;;;3.40;;
23378;SDS011;11862;46.070;13.222;2022-11-15T00:32:10;4.78;;;4.18;;
23378;SDS011;11862;46.070;13.222;2022-11-15T00:34:36;4.35;;;3.78;;
23378;SDS011;11862;46.070;13.222;2022-11-15T00:37:02;3.72;;;3.40;;
23378;SDS011;11862;46.070;13.222;2022-11-15T00:39:28;4.72;;;4.18;;
23378;SDS011;11862;46.070;13.222;2022-11-15T00:41:53;4.80;;;3.90;;
23378;SDS011;11862;46.070;13.222;2022-11-15T00:44:19;3.88;;;3.42;;
23378;SDS011;11862;46.070;13.222;2022-11-15T00:46:45;3.97;;;3.60;;
23378;SDS011;11862;46.070;13.222;2022-11-15T00:49:11;5.47;;;3.65;;
23378;SDS011;11862;46.070;13.222;2022-11-15T00:51:37;4.63;;;3.70;;
23378;SDS011;11862;46.070;13.222;2022-11-15T00:54:02;4.18;;;3.72;;
23378;SDS011;11862;46.070;13.222;2022-11-15T00:56:28;4.20;;;3.72;;
23378;SDS011;11862;46.070;13.222;2022-11-15T00:58:54;4.43;;;4.03;;
23378;SDS011;11862;46.070;13.222;2022-11-15T01:01:20;4.10;;;3.70;;
23378;SDS011;11862;46.070;13.222;2022-11-15T01:03:46;4.25;;;3.85;;
23378;SDS011;11862;46.070;13.222;2022-11-15T01:06:11;5.25;;;3.72;;
23378;SDS011;11862;46.070;13.222;2022-11-15T01:08:38;4.60;;;3.60;;
23378;SDS011;11862;46.070;13.222;2022-11-15T01:11:06;4.30;;;3.85;;
23378;SDS011;11862;46.070;13.222;2022-11-15T01:13:37;4.20;;;3.80;;
23378;SDS011;11862;46.070;13.222;2022-11-15T01:16:08;5.28;;;4.28;;
23378;SDS011;11862;46.070;13.222;2022-11-15T01:18:35;4.20;;;3.80;;
23378;SDS011;11862;46.070;13.222;2022-11-15T01:21:08;4.68;;;4.25;;
23378;SDS011;11862;46.070;13.222;2022-11-15T01:23:35;5.07;;;3.80;;
23378;SDS011;11862;46.070;13.222;2022-11-15T01:26:01;4.55;;;4.07;;
23378;SDS011;11862;46.070;13.222;2022-11-15T01:28:32;5.72;;;4.00;;
23378;SDS011;11862;46.070;13.222;2022-11-15T01:31:00;4.05;;;3.75;;
23378;SDS011;11862;46.070;13.222;2022-11-15T01:33:27;3.90;;;3.60;;
23378;SDS011;11862;46.070;13.222;2022-11-15T01:35:54;5.05;;;3.75;;
23378;SDS011;11862;46.070;13.222;2022-11-15T01:38:20;4.22;;;3.83;;
23378;SDS011;11862;46.070;13.222;2022-11-15T01:40:47;3.60;;;3.30;;
23378;SDS011;11862;46.070;13.222;2022-11-15T01:43:20;5.55;;;3.90;;
23378;SDS011;11862;46.070;13.222;2022-11-15T01:45:50;4.28;;;3.88;;
23378;SDS011;11862;46.070;13.222;2022-11-15T01:48:37;4.18;;;3.80;;
23378;SDS011;11862;46.070;13.222;2022-11-15T01:51:04;4.50;;;3.85;;
23378;SDS011;11862;46.070;13.222;2022-11-15T01:53:34;3.78;;;3.47;;
23378;SDS011;11862;46.070;13.222;2022-11-15T01:56:03;4.70;;;4.15;;
23378;SDS011;11862;46.070;13.222;2022-11-15T01:58:33;6.00;;;4.07;;
23378;SDS011;11862;46.070;13.222;2022-11-15T02:01:00;4.45;;;4.05;;
23378;SDS011;11862;46.070;13.222;2022-11-15T02:03:31;4.28;;;3.88;;
23378;SDS011;11862;46.070;13.222;2022-11-15T02:06:11;4.68;;;4.22;;
23378;SDS011;11862;46.070;13.222;2022-11-15T02:08:37;4.07;;;3.67;;
23378;SDS011;11862;46.070;13.222;2022-11-15T02:11:04;5.45;;;4.50;;
23378;SDS011;11862;46.070;13.222;2022-11-15T02:13:33;4.65;;;4.20;;
23378;SDS011;11862;46.070;13.222;2022-11-15T02:16:09;5.55;;;4.13;;
23378;SDS011;11862;46.070;13.222;2022-11-15T02:18:38;4.50;;;4.10;;
23378;SDS011;11862;46.070;13.222;2022-11-15T02:21:25;4.68;;;4.28;;
23378;SDS011;11862;46.070;13.222;2022-11-15T02:26:50;5.22;;;4.38;;
23378;SDS011;11862;46.070;13.222;2022-11-15T02:32:10;4.50;;;3.85;;
23378;SDS011;11862;46.070;13.222;2022-11-15T02:40:38;7.30;;;4.18;;
23378;SDS011;11862;46.070;13.222;2022-11-15T02:43:22;4.80;;;3.88;;
23378;SDS011;11862;46.070;13.222;2022-11-15T02:46:19;6.05;;;4.00;;
23378;SDS011;11862;46.070;13.222;2022-11-15T02:49:09;4.20;;;3.80;;
23378;SDS011;11862;46.070;13.222;2022-11-15T02:51:37;4.63;;;4.22;;
23378;SDS011;11862;46.070;13.222;2022-11-15T02:54:05;5.70;;;4.05;;
23378;SDS011;11862;46.070;13.222;2022-11-15T02:56:30;3.97;;;3.60;;
23378;SDS011;11862;46.070;13.222;2022-11-15T02:59:00;4.20;;;3.80;;
23378;SDS011;11862;46.070;13.222;2022-11-15T03:04:54;3.83;;;3.42;;
23378;SDS011;11862;46.070;13.222;2022-11-15T03:07:29;4.07;;;3.70;;
23378;SDS011;11862;46.070;13.222;2022-11-15T03:10:17;5.28;;;4.05;;
23378;SDS011;11862;46.070;13.222;2022-11-15T03:15:41;4.40;;;3.92;;
23378;SDS011;11862;46.070;13.222;2022-11-15T03:18:16;4.32;;;3.92;;
23378;SDS011;11862;46.070;13.222;2022-11-15T03:21:07;3.72;;;3.42;;
23378;SDS011;11862;46.070;13.222;2022-11-15T03:23:37;4.75;;;3.88;;
23378;SDS011;11862;46.070;13.222;2022-11-15T03:26:05;3.92;;;3.63;;
23378;SDS011;11862;46.070;13.222;2022-11-15T03:28:36;5.13;;;3.80;;
23378;SDS011;11862;46.070;13.222;2022-11-15T03:31:09;4.60;;;4.20;;
23378;SDS011;11862;46.070;13.222;2022-11-15T03:33:57;6.00;;;4.20;;
23378;SDS011;11862;46.070;13.222;2022-11-15T03:36:26;4.72;;;4.15;;
23378;SDS011;11862;46.070;13.222;2022-11-15T03:38:56;5.07;;;4.43;;
23378;SDS011;11862;46.070;13.222;2022-11-15T03:41:42;5.07;;;4.28;;
23378;SDS011;11862;46.070;13.222;2022-11-15T03:44:20;4.97;;;4.53;;
23378;SDS011;11862;46.070;13.222;2022-11-15T03:47:09;6.57;;;4.63;;
23378;SDS011;11862;46.070;13.222;2022-11-15T03:49:59;5.72;;;4.70;;
23378;SDS011;11862;46.070;13.222;2022-11-15T03:52:33;5.88;;;4.70;;
23378;SDS011;11862;46.070;13.222;2022-11-15T03:55:00;5.05;;;4.25;;
23378;SDS011;11862;46.070;13.222;2022-11-15T03:57:28;6.68;;;4.70;;
23378;SDS011;11862;46.070;13.222;2022-11-15T03:59:54;6.43;;;5.28;;
23378;SDS011;11862;46.070;13.222;2022-11-15T04:02:20;5.30;;;4.78;;
23378;SDS011;11862;46.070;13.222;2022-11-15T04:04:46;5.07;;;4.35;;
23378;SDS011;11862;46.070;13.222;2022-11-15T04:07:12;5.55;;;4.88;;
23378;SDS011;11862;46.070;13.222;2022-11-15T04:09:38;6.35;;;5.18;;
23378;SDS011;11862;46.070;13.222;2022-11-15T04:12:23;6.72;;;4.57;;
23378;SDS011;11862;46.070;13.222;2022-11-15T04:17:38;5.15;;;4.47;;
23378;SDS011;11862;46.070;13.222;2022-11-15T04:20:13;7.13;;;4.68;;
23378;SDS011;11862;46.070;13.222;2022-11-15T04:23:01;5.60;;;5.00;;
23378;SDS011;11862;46.070;13.222;2022-11-15T04:25:49;5.43;;;4.93;;
23378;SDS011;11862;46.070;13.222;2022-11-15T04:28:16;4.55;;;4.15;;
23378;SDS011;11862;46.070;13.222;2022-11-15T04:30:42;7.15;;;5.15;;
23378;SDS011;11862;46.070;13.222;2022-11-15T04:33:08;5.95;;;4.88;;
23378;SDS011;11862;46.070;13.222;2022-11-15T04:35:34;4.63;;;4.10;;
23378;SDS011;11862;46.070;13.222;2022-11-15T04:37:59;8.48;;;4.68;;
23378;SDS011;11862;46.070;13.222;2022-11-15T04:40:26;5.10;;;4.60;;
23378;SDS011;11862;46.070;13.222;2022-11-15T04:42:52;5.80;;;5.00;;
23378;SDS011;11862;46.070;13.222;2022-11-15T04:45:18;7.35;;;5.60;;
23378;SDS011;11862;46.070;13.222;2022-11-15T04:47:44;5.50;;;5.00;;
23378;SDS011;11862;46.070;13.222;2022-11-15T04:50:11;5.10;;;4.63;;
23378;SDS011;11862;46.070;13.222;2022-11-15T04:52:50;6.93;;;5.18;;
23378;SDS011;11862;46.070;13.222;2022-11-15T04:55:17;6.20;;;5.53;;
23378;SDS011;11862;46.070;13.222;2022-11-15T04:57:42;5.28;;;4.78;;
23378;SDS011;11862;46.070;13.222;2022-11-15T05:00:10;6.03;;;5.40;;
23378;SDS011;11862;46.070;13.222;2022-11-15T05:05:25;6.10;;;5.60;;
23378;SDS011;11862;46.070;13.222;2022-11-15T05:07:50;5.80;;;5.20;;
23378;SDS011;11862;46.070;13.222;2022-11-15T05:10:16;7.22;;;5.32;;
23378;SDS011;11862;46.070;13.222;2022-11-15T05:12:42;6.13;;;5.32;;
23378;SDS011;11862;46.070;13.222;2022-11-15T05:15:08;6.55;;;5.20;;
23378;SDS011;11862;46.070;13.222;2022-11-15T05:17:34;5.13;;;4.72;;
23378;SDS011;11862;46.070;13.222;2022-11-15T05:20:00;5.78;;;5.18;;
23378;SDS011;11862;46.070;13.222;2022-11-15T05:22:26;7.85;;;5.65;;
23378;SDS011;11862;46.070;13.222;2022-11-15T05:24:52;6.32;;;5.38;;
23378;SDS011;11862;46.070;13.222;2022-11-15T05:27:18;5.75;;;5.15;;
23378;SDS011;11862;46.070;13.222;2022-11-15T05:29:44;6.53;;;5.70;;
23378;SDS011;11862;46.070;13.222;2022-11-15T05:32:10;7.78;;;5.40;;
23378;SDS011;11862;46.070;13.222;2022-11-15T05:34:37;5.93;;;5.28;;
23378;SDS011;11862;46.070;13.222;2022-11-15T05:37:03;7.40;;;5.70;;
23378;SDS011;11862;46.070;13.222;2022-11-15T05:39:29;6.47;;;5.57;;
23378;SDS011;11862;46.070;13.222;2022-11-15T05:41:57;5.93;;;5.32;;
23378;SDS011;11862;46.070;13.222;2022-11-15T05:44:30;6.07;;;5.22;;
23378;SDS011;11862;46.070;13.222;2022-11-15T05:46:57;6.07;;;5.28;;
23378;SDS011;11862;46.070;13.222;2022-11-15T05:49:24;6.28;;;5.65;;
23378;SDS011;11862;46.070;13.222;2022-11-15T05:54:21;6.90;;;5.55;;
23378;SDS011;11862;46.070;13.222;2022-11-15T05:56:48;6.75;;;5.93;;
23378;SDS011;11862;46.070;13.222;2022-11-15T05:59:14;7.93;;;5.45;;
23378;SDS011;11862;46.070;13.222;2022-11-15T06:01:41;6.93;;;5.38;;
23378;SDS011;11862;46.070;13.222;2022-11-15T06:04:07;7.82;;;5.35;;
23378;SDS011;11862;46.070;13.222;2022-11-15T06:06:33;6.60;;;5.55;;
23378;SDS011;11862;46.070;13.222;2022-11-15T06:08:58;6.20;;;5.53;;
23378;SDS011;11862;46.070;13.222;2022-11-15T06:11:24;9.32;;;5.57;;
23378;SDS011;11862;46.070;13.222;2022-11-15T06:13:50;6.65;;;5.55;;
23378;SDS011;11862;46.070;13.222;2022-11-15T06:16:16;8.07;;;5.70;;
23378;SDS011;11862;46.070;13.222;2022-11-15T06:18:41;6.13;;;5.50;;
23378;SDS011;11862;46.070;13.222;2022-11-15T06:21:07;6.93;;;6.10;;
23378;SDS011;11862;46.070;13.222;2022-11-15T06:23:34;6.10;;;5.50;;
23378;SDS011;11862;46.070;13.222;2022-11-15T06:26:00;5.72;;;5.20;;
23378;SDS011;11862;46.070;13.222;2022-11-15T06:28:30;8.00;;;5.78;;
23378;SDS011;11862;46.070;13.222;2022-11-15T06:31:07;5.75;;;5.20;;
23378;SDS011;11862;46.070;13.222;2022-11-15T06:33:36;11.20;;;5.90;;
23378;SDS011;11862;46.070;13.222;2022-11-15T06:36:10;6.55;;;5.07;;
23378;SDS011;11862;46.070;13.222;2022-11-15T06:38:41;7.22;;;5.38;;
23378;SDS011;11862;46.070;13.222;2022-11-15T06:41:14;8.90;;;5.75;;
23378;SDS011;11862;46.070;13.222;2022-11-15T06:43:54;6.75;;;5.30;;
23378;SDS011;11862;46.070;13.222;2022-11-15T06:46:38;7.88;;;5.90;;
23378;SDS011;11862;46.070;13.222;2022-11-15T06:49:15;6.72;;;5.80;;
23378;SDS011;11862;46.070;13.222;2022-11-15T06:52:52;6.53;;;5.55;;
23378;SDS011;11862;46.070;13.222;2022-11-15T06:55:49;8.52;;;5.65;;
23378;SDS011;11862;46.070;13.222;2022-11-15T07:01:14;13.07;;;8.95;;
23378;SDS011;11862;46.070;13.222;2022-11-15T07:04:05;16.67;;;10.48;;
23378;SDS011;11862;46.070;13.222;2022-11-15T07:09:18;17.15;;;9.20;;
23378;SDS011;11862;46.070;13.222;2022-11-15T07:11:46;14.68;;;9.93;;
23378;SDS011;11862;46.070;13.222;2022-11-15T07:14:13;14.60;;;9.95;;
23378;SDS011;11862;46.070;13.222;2022-11-15T07:16:41;16.10;;;11.40;;
23378;SDS011;11862;46.070;13.222;2022-11-15T07:19:16;15.20;;;11.35;;
23378;SDS011;11862;46.070;13.222;2022-11-15T07:21:42;9.27;;;7.22;;
23378;SDS011;11862;46.070;13.222;2022-11-15T07:24:08;12.25;;;6.43;;
23378;SDS011;11862;46.070;13.222;2022-11-15T07:26:34;6.68;;;5.75;;
23378;SDS011;11862;46.070;13.222;2022-11-15T07:29:04;5.50;;;4.95;;
23378;SDS011;11862;46.070;13.222;2022-11-15T07:31:34;6.95;;;4.97;;
23378;SDS011;11862;46.070;13.222;2022-11-15T07:34:02;8.43;;;5.78;;
23378;SDS011;11862;46.070;13.222;2022-11-15T07:36:31;6.20;;;5.50;;
23378;SDS011;11862;46.070;13.222;2022-11-15T07:38:57;8.43;;;5.78;;
23378;SDS011;11862;46.070;13.222;2022-11-15T07:41:23;8.57;;;6.38;;
23378;SDS011;11862;46.070;13.222;2022-11-15T07:43:51;8.07;;;5.68;;
23378;SDS011;11862;46.070;13.222;2022-11-15T07:46:18;8.70;;;5.13;;
23378;SDS011;11862;46.070;13.222;2022-11-15T07:48:44;5.13;;;4.53;;
23378;SDS011;11862;46.070;13.222;2022-11-15T07:51:14;6.97;;;4.88;;
23378;SDS011;11862;46.070;13.222;2022-11-15T07:53:54;5.72;;;4.57;;
23378;SDS011;11862;46.070;13.222;2022-11-15T07:56:24;8.60;;;5.78;;
23378;SDS011;11862;46.070;13.222;2022-11-15T08:01:26;7.68;;;5.97;;
23378;SDS011;11862;46.070;13.222;2022-11-15T08:03:53;9.02;;;5.35;;
23378;SDS011;11862;46.070;13.222;2022-11-15T08:06:22;7.60;;;6.00;;
23378;SDS011;11862;46.070;13.222;2022-11-15T08:08:59;7.50;;;5.65;;
23378;SDS011;11862;46.070;13.222;2022-11-15T08:11:26;7.82;;;5.65;;
23378;SDS011;11862;46.070;13.222;2022-11-15T08:13:55;7.32;;;6.55;;
23378;SDS011;11862;46.070;13.222;2022-11-15T08:16:22;6.80;;;5.88;;
23378;SDS011;11862;46.070;13.222;2022-11-15T08:18:52;10.77;;;6.40;;
23378;SDS011;11862;46.070;13.222;2022-11-15T08:21:19;8.80;;;6.50;;
23378;SDS011;11862;46.070;13.222;2022-11-15T08:23:48;10.85;;;6.30;;
23378;SDS011;11862;46.070;13.222;2022-11-15T08:28:55;9.98;;;6.95;;
23378;SDS011;11862;46.070;13.222;2022-11-15T08:31:24;8.25;;;6.55;;
23378;SDS011;11862;46.070;13.222;2022-11-15T08:33:51;10.95;;;6.20;;
23378;SDS011;11862;46.070;13.222;2022-11-15T08:36:20;8.23;;;5.55;;
23378;SDS011;11862;46.070;13.222;2022-11-15T08:38:50;7.32;;;5.78;;
23378;SDS011;11862;46.070;13.222;2022-11-15T08:41:26;9.85;;;5.82;;
23378;SDS011;11862;46.070;13.222;2022-11-15T08:43:57;8.65;;;5.25;;
23378;SDS011;11862;46.070;13.222;2022-11-15T08:46:25;6.63;;;5.35;;
23378;SDS011;11862;46.070;13.222;2022-11-15T08:48:55;5.45;;;4.85;;
23378;SDS011;11862;46.070;13.222;2022-11-15T08:51:24;7.50;;;5.50;;
23378;SDS011;11862;46.070;13.222;2022-11-15T08:54:01;6.13;;;4.72;;
23378;SDS011;11862;46.070;13.222;2022-11-15T08:56:46;8.00;;;6.13;;
23378;SDS011;11862;46.070;13.222;2022-11-15T08:59:14;6.72;;;5.38;;
23378;SDS011;11862;46.070;13.222;2022-11-15T09:01:48;6.75;;;5.65;;
23378;SDS011;11862;46.070;13.222;2022-11-15T09:04:18;7.80;;;6.40;;
23378;SDS011;11862;46.070;13.222;2022-11-15T09:06:59;8.63;;;6.03;;
23378;SDS011;11862;46.070;13.222;2022-11-15T09:09:33;7.22;;;5.63;;
23378;SDS011;11862;46.070;13.222;2022-11-15T09:12:10;5.85;;;4.85;;
23378;SDS011;11862;46.070;13.222;2022-11-15T09:14:40;6.07;;;5.43;;
23378;SDS011;11862;46.070;13.222;2022-11-15T09:17:20;6.72;;;5.60;;
23378;SDS011;11862;46.070;13.222;2022-11-15T09:19:56;7.85;;;5.32;;
23378;SDS011;11862;46.070;13.222;2022-11-15T09:22:32;6.18;;;4.80;;
23378;SDS011;11862;46.070;13.222;2022-11-15T09:25:06;6.68;;;5.60;;
23378;SDS011;11862;46.070;13.222;2022-11-15T09:27:56;6.15;;;5.30;;
23378;SDS011;11862;46.070;13.222;2022-11-15T09:30:26;6.82;;;5.38;;
23378;SDS011;11862;46.070;13.222;2022-11-15T09:32:56;7.55;;;5.03;;
23378;SDS011;11862;46.070;13.222;2022-11-15T09:35:24;7.53;;;5.35;;
23378;SDS011;11862;46.070;13.222;2022-11-15T09:37:57;10.48;;;5.78;;
23378;SDS011;11862;46.070;13.222;2022-11-15T09:40:26;7.65;;;5.85;;
23378;SDS011;11862;46.070;13.222;2022-11-15T09:46:01;9.48;;;6.10;;
23378;SDS011;11862;46.070;13.222;2022-11-15T09:48:53;8.15;;;6.20;;
23378;SDS011;11862;46.070;13.222;2022-11-15T09:51:32;7.28;;;5.95;;
23378;SDS011;11862;46.070;13.222;2022-11-15T09:54:38;5.80;;;5.18;;
23378;SDS011;11862;46.070;13.222;2022-11-15T10:00:33;9.88;;;6.22;;
23378;SDS011;11862;46.070;13.222;2022-11-15T10:06:04;8.85;;;6.47;;
23378;SDS011;11862;46.070;13.222;2022-11-15T10:11:54;6.63;;;5.33;;
23378;SDS011;11862;46.070;13.222;2022-11-15T10:14:35;7.70;;;5.57;;
23378;SDS011;11862;46.070;13.222;2022-11-15T10:17:21;8.52;;;5.70;;
23378;SDS011;11862;46.070;13.222;2022-11-15T10:25:23;5.05;;;4.55;;
23378;SDS011;11862;46.070;13.222;2022-11-15T10:30:23;11.73;;;5.32;;
23378;SDS011;11862;46.070;13.222;2022-11-15T10:32:58;7.50;;;5.00;;
23378;SDS011;11862;46.070;13.222;2022-11-15T10:35:38;5.15;;;4.20;;
23378;SDS011;11862;46.070;13.222;2022-11-15T10:38:10;5.32;;;4.82;;
23378;SDS011;11862;46.070;13.222;2022-11-15T10:40:38;7.20;;;4.97;;
23378;SDS011;11862;46.070;13.222;2022-11-15T10:43:13;5.53;;;4.82;;
23378;SDS011;11862;46.070;13.222;2022-11-15T10:45:41;6.22;;;4.70;;
23378;SDS011;11862;46.070;13.222;2022-11-15T10:50:47;5.95;;;4.70;;
23378;SDS011;11862;46.070;13.222;2022-11-15T10:53:31;5.53;;;4.88;;
23378;SDS011;11862;46.070;13.222;2022-11-15T10:56:11;4.82;;;4.03;;
23378;SDS011;11862;46.070;13.222;2022-11-15T10:58:44;4.28;;;3.95;;
23378;SDS011;11862;46.070;13.222;2022-11-15T11:01:34;6.10;;;4.93;;
23378;SDS011;11862;46.070;13.222;2022-11-15T11:04:17;7.35;;;5.18;;
23378;SDS011;11862;46.070;13.222;2022-11-15T11:10:04;5.20;;;4.35;;
23378;SDS011;11862;46.070;13.222;2022-11-15T11:12:46;5.38;;;4.85;;
23378;SDS011;11862;46.070;13.222;2022-11-15T11:15:20;6.78;;;4.57;;
23378;SDS011;11862;46.070;13.222;2022-11-15T11:18:14;5.53;;;4.40;;
23378;SDS011;11862;46.070;13.222;2022-11-15T11:20:56;6.35;;;4.88;;
23378;SDS011;11862;46.070;13.222;2022-11-15T11:32:23;7.57;;;5.38;;
23378;SDS011;11862;46.070;13.222;2022-11-15T11:35:17;6.47;;;5.72;;
23378;SDS011;11862;46.070;13.222;2022-11-15T11:51:24;5.22;;;4.45;;
23378;SDS011;11862;46.070;13.222;2022-11-15T11:54:14;7.82;;;5.40;;
23378;SDS011;11862;46.070;13.222;2022-11-15T11:57:06;6.25;;;5.68;;
23378;SDS011;11862;46.070;13.222;2022-11-15T12:07:25;10.73;;;8.18;;
23378;SDS011;11862;46.070;13.222;2022-11-15T12:10:01;11.05;;;8.18;;
23378;SDS011;11862;46.070;13.222;2022-11-15T12:12:35;9.68;;;8.40;;
23378;SDS011;11862;46.070;13.222;2022-11-15T12:15:41;10.95;;;8.45;;
23378;SDS011;11862;46.070;13.222;2022-11-15T12:23:54;7.40;;;6.70;;
23378;SDS011;11862;46.070;13.222;2022-11-15T12:26:32;9.63;;;6.85;;
23378;SDS011;11862;46.070;13.222;2022-11-15T12:29:09;6.68;;;5.80;;
23378;SDS011;11862;46.070;13.222;2022-11-15T12:31:45;7.65;;;6.55;;
23378;SDS011;11862;46.070;13.222;2022-11-15T12:36:50;7.90;;;6.53;;
23378;SDS011;11862;46.070;13.222;2022-11-15T12:39:17;9.07;;;7.43;;
23378;SDS011;11862;46.070;13.222;2022-11-15T12:52:06;7.35;;;5.05;;
23378;SDS011;11862;46.070;13.222;2022-11-15T13:04:48;10.75;;;6.70;;
23378;SDS011;11862;46.070;13.222;2022-11-15T13:10:00;15.43;;;8.48;;
23378;SDS011;11862;46.070;13.222;2022-11-15T13:12:50;9.85;;;8.85;;
23378;SDS011;11862;46.070;13.222;2022-11-15T13:20:48;11.93;;;8.52;;
23378;SDS011;11862;46.070;13.222;2022-11-15T13:23:15;10.70;;;9.30;;
23378;SDS011;11862;46.070;13.222;2022-11-15T13:28:31;12.73;;;9.73;;
23378;SDS011;11862;46.070;13.222;2022-11-15T13:31:03;11.73;;;10.02;;
23378;SDS011;11862;46.070;13.222;2022-11-15T13:33:44;11.15;;;9.80;;
23378;SDS011;11862;46.070;13.222;2022-11-15T13:39:03;12.02;;;10.63;;
23378;SDS011;11862;46.070;13.222;2022-11-15T13:41:44;11.98;;;10.05;;
23378;SDS011;11862;46.070;13.222;2022-11-15T13:44:21;11.73;;;9.80;;
23378;SDS011;11862;46.070;13.222;2022-11-15T13:49:41;10.98;;;9.10;;
23378;SDS011;11862;46.070;13.222;2022-11-15T13:52:10;11.25;;;10.10;;
23378;SDS011;11862;46.070;13.222;2022-11-15T13:54:46;10.70;;;9.60;;
23378;SDS011;11862;46.070;13.222;2022-11-15T13:59:53;10.20;;;9.20;;
23378;SDS011;11862;46.070;13.222;2022-11-15T14:02:35;11.68;;;10.52;;
23378;SDS011;11862;46.070;13.222;2022-11-15T14:08:01;11.15;;;10.05;;
23378;SDS011;11862;46.070;13.222;2022-11-15T14:13:01;14.90;;;11.18;;
23378;SDS011;11862;46.070;13.222;2022-11-15T14:18:00;12.85;;;11.55;;
23378;SDS011;11862;46.070;13.222;2022-11-15T14:20:32;13.88;;;11.98;;
23378;SDS011;11862;46.070;13.222;2022-11-15T14:23:03;12.20;;;10.82;;
23378;SDS011;11862;46.070;13.222;2022-11-15T14:26:11;14.52;;;11.93;;
23378;SDS011;11862;46.070;13.222;2022-11-15T14:31:50;13.85;;;11.95;;
23378;SDS011;11862;46.070;13.222;2022-11-15T14:34:16;16.48;;;12.88;;
23378;SDS011;11862;46.070;13.222;2022-11-15T14:36:42;19.27;;;13.50;;
23378;SDS011;11862;46.070;13.222;2022-11-15T14:39:08;14.52;;;12.95;;
23378;SDS011;11862;46.070;13.222;2022-11-15T14:41:35;13.57;;;12.15;;
23378;SDS011;11862;46.070;13.222;2022-11-15T14:44:05;13.85;;;12.45;;
23378;SDS011;11862;46.070;13.222;2022-11-15T14:46:31;13.48;;;12.10;;
23378;SDS011;11862;46.070;13.222;2022-11-15T14:48:57;16.05;;;11.93;;
23378;SDS011;11862;46.070;13.222;2022-11-15T14:51:23;13.70;;;11.18;;
23378;SDS011;11862;46.070;13.222;2022-11-15T14:53:58;17.35;;;12.73;;
23378;SDS011;11862;46.070;13.222;2022-11-15T14:56:23;13.60;;;11.73;;
23378;SDS011;11862;46.070;13.222;2022-11-15T14:58:49;15.27;;;13.68;;
23378;SDS011;11862;46.070;13.222;2022-11-15T15:01:34;14.32;;;12.68;;
23378;SDS011;11862;46.070;13.222;2022-11-15T15:04:00;14.48;;;12.98;;
23378;SDS011;11862;46.070;13.222;2022-11-15T15:06:30;14.27;;;12.77;;
23378;SDS011;11862;46.070;13.222;2022-11-15T15:08:56;15.50;;;12.95;;
23378;SDS011;11862;46.070;13.222;2022-11-15T15:11:25;14.15;;;12.13;;
23378;SDS011;11862;46.070;13.222;2022-11-15T15:13:54;14.82;;;12.73;;
23378;SDS011;11862;46.070;13.222;2022-11-15T15:16:23;16.42;;;12.77;;
23378;SDS011;11862;46.070;13.222;2022-11-15T15:18:50;13.52;;;12.10;;
23378;SDS011;11862;46.070;13.222;2022-11-15T15:21:26;14.85;;;12.35;;
23378;SDS011;11862;46.070;13.222;2022-11-15T15:23:53;15.80;;;13.55;;
23378;SDS011;11862;46.070;13.222;2022-11-15T15:26:25;15.32;;;13.73;;
23378;SDS011;11862;46.070;13.222;2022-11-15T15:28:51;16.08;;;14.38;;
23378;SDS011;11862;46.070;13.222;2022-11-15T15:31:17;16.67;;;13.77;;
23378;SDS011;11862;46.070;13.222;2022-11-15T15:33:44;19.58;;;15.27;;
23378;SDS011;11862;46.070;13.222;2022-11-15T15:36:11;16.63;;;13.75;;
23378;SDS011;11862;46.070;13.222;2022-11-15T15:38:42;18.02;;;14.55;;
23378;SDS011;11862;46.070;13.222;2022-11-15T15:41:12;18.65;;;14.82;;
23378;SDS011;11862;46.070;13.222;2022-11-15T15:43:42;22.38;;;15.05;;
23378;SDS011;11862;46.070;13.222;2022-11-15T15:46:11;19.67;;;16.17;;
23378;SDS011;11862;46.070;13.222;2022-11-15T15:48:42;18.02;;;15.50;;
23378;SDS011;11862;46.070;13.222;2022-11-15T15:51:09;19.20;;;15.57;;
23378;SDS011;11862;46.070;13.222;2022-11-15T15:53:35;18.63;;;14.35;;
23378;SDS011;11862;46.070;13.222;2022-11-15T15:56:01;17.95;;;14.95;;
23378;SDS011;11862;46.070;13.222;2022-11-15T15:58:28;16.45;;;14.52;;
23378;SDS011;11862;46.070;13.222;2022-11-15T16:01:00;18.70;;;15.60;;
23378;SDS011;11862;46.070;13.222;2022-11-15T16:05:55;24.65;;;15.48;;
23378;SDS011;11862;46.070;13.222;2022-11-15T16:08:22;22.15;;;15.73;;
23378;SDS011;11862;46.070;13.222;2022-11-15T16:10:49;19.98;;;16.33;;
23378;SDS011;11862;46.070;13.222;2022-11-15T16:13:15;18.17;;;16.02;;
23378;SDS011;11862;46.070;13.222;2022-11-15T16:15:42;18.17;;;15.82;;
23378;SDS011;11862;46.070;13.222;2022-11-15T16:18:12;20.65;;;16.40;;
23378;SDS011;11862;46.070;13.222;2022-11-15T16:20:45;19.13;;;15.90;;
23378;SDS011;11862;46.070;13.222;2022-11-15T16:23:20;19.85;;;17.27;;
23378;SDS011;11862;46.070;13.222;2022-11-15T16:28:25;20.85;;;16.90;;
23378;SDS011;11862;46.070;13.222;2022-11-15T16:31:00;24.75;;;18.13;;
23378;SDS011;11862;46.070;13.222;2022-11-15T16:33:27;18.92;;;16.60;;
23378;SDS011;11862;46.070;13.222;2022-11-15T16:35:53;19.17;;;15.13;;
23378;SDS011;11862;46.070;13.222;2022-11-15T16:38:19;20.70;;;16.55;;
23378;SDS011;11862;46.070;13.222;2022-11-15T16:40:51;21.00;;;16.92;;
23378;SDS011;11862;46.070;13.222;2022-11-15T16:43:17;27.17;;;21.75;;
23378;SDS011;11862;46.070;13.222;2022-11-15T16:45:47;34.90;;;23.77;;
23378;SDS011;11862;46.070;13.222;2022-11-15T16:48:20;32.42;;;23.85;;
23378;SDS011;11862;46.070;13.222;2022-11-15T16:50:49;28.45;;;22.42;;
23378;SDS011;11862;46.070;13.222;2022-11-15T16:53:19;29.23;;;23.42;;
23378;SDS011;11862;46.070;13.222;2022-11-15T16:55:54;32.03;;;24.45;;
23378;SDS011;11862;46.070;13.222;2022-11-15T16:58:23;34.30;;;23.52;;
23378;SDS011;11862;46.070;13.222;2022-11-15T17:00:53;27.58;;;21.52;;
23378;SDS011;11862;46.070;13.222;2022-11-15T17:03:23;26.60;;;23.23;;
23378;SDS011;11862;46.070;13.222;2022-11-15T17:05:56;30.92;;;24.17;;
23378;SDS011;11862;46.070;13.222;2022-11-15T17:08:26;32.85;;;25.77;;
23378;SDS011;11862;46.070;13.222;2022-11-15T17:10:55;33.63;;;27.58;;
23378;SDS011;11862;46.070;13.222;2022-11-15T17:13:21;36.05;;;30.17;;
23378;SDS011;11862;46.070;13.222;2022-11-15T17:15:48;32.67;;;27.88;;
23378;SDS011;11862;46.070;13.222;2022-11-15T17:18:14;36.63;;;29.83;;
23378;SDS011;11862;46.070;13.222;2022-11-15T17:20:40;39.00;;;31.48;;
23378;SDS011;11862;46.070;13.222;2022-11-15T17:23:10;38.90;;;32.72;;
23378;SDS011;11862;46.070;13.222;2022-11-15T17:28:38;40.10;;;32.38;;
23378;SDS011;11862;46.070;13.222;2022-11-15T17:31:08;42.40;;;33.85;;
23378;SDS011;11862;46.070;13.222;2022-11-15T17:33:36;40.25;;;33.10;;